sensor_id;sensor_type;location;lat;lon;timestamp;temperature;humidity
44731;DHT22;30458;47.448;19.032;2022-11-12T00:08:03;10.80;99.90
44731;DHT22;30458;47.448;19.032;2022-11-12T00:18:24;10.60;99.90
44731;DHT22;30458;47.448;19.032;2022-11-12T00:28:43;10.40;99.90
44731;DHT22;30458;47.448;19.032;2022-11-12T00:39:03;10.20;99.90
44731;DHT22;30458;47.448;19.032;2022-11-12T00:49:23;10.30;99.90
44731;DHT22;30458;47.448;19.032;2022-11-12T00:59:42;10.50;99.90
44731;DHT22;30458;47.448;19.032;2022-11-12T01:10:01;10.50;99.90
44731;DHT22;30458;47.448;19.032;2022-11-12T01:20:20;10.60;99.90
44731;DHT22;30458;47.448;19.032;2022-11-12T01:30:42;10.60;99.90
44731;DHT22;30458;47.448;19.032;2022-11-12T01:41:04;10.60;99.90
44731;DHT22;30458;47.448;19.032;2022-11-12T01:51:31;10.70;99.90
44731;DHT22;30458;47.448;19.032;2022-11-12T02:01:52;10.60;99.90
44731;DHT22;30458;47.448;19.032;2022-11-12T02:12:11;10.40;99.90
44731;DHT22;30458;47.448;19.032;2022-11-12T02:22:50;10.50;99.90
44731;DHT22;30458;47.448;19.032;2022-11-12T02:33:09;10.70;99.90
44731;DHT22;30458;47.448;19.032;2022-11-12T02:43:29;10.80;99.90
44731;DHT22;30458;47.448;19.032;2022-11-12T02:53:48;10.70;99.90
44731;DHT22;30458;47.448;19.032;2022-11-12T03:04:07;10.80;99.90
44731;DHT22;30458;47.448;19.032;2022-11-12T03:14:26;10.50;99.90
44731;DHT22;30458;47.448;19.032;2022-11-12T03:24:45;10.40;99.90
44731;DHT22;30458;47.448;19.032;2022-11-12T03:35:04;10.50;99.90
44731;DHT22;30458;47.448;19.032;2022-11-12T03:45:27;10.60;99.90
44731;DHT22;30458;47.448;19.032;2022-11-12T03:55:49;10.60;99.90
44731;DHT22;30458;47.448;19.032;2022-11-12T04:06:10;10.60;99.90
44731;DHT22;30458;47.448;19.032;2022-11-12T04:16:48;10.40;99.90
44731;DHT22;30458;47.448;19.032;2022-11-12T04:27:32;10.30;99.90
44731;DHT22;30458;47.448;19.032;2022-11-12T04:37:54;10.80;99.90
44731;DHT22;30458;47.448;19.032;2022-11-12T04:48:15;10.40;99.90
44731;DHT22;30458;47.448;19.032;2022-11-12T04:58:34;10.20;99.90
44731;DHT22;30458;47.448;19.032;2022-11-12T05:08:55;10.10;99.90
44731;DHT22;30458;47.448;19.032;2022-11-12T05:19:17;10.00;99.90
44731;DHT22;30458;47.448;19.032;2022-11-12T05:29:37;10.00;99.90
44731;DHT22;30458;47.448;19.032;2022-11-12T05:39:59;9.80;99.90
44731;DHT22;30458;47.448;19.032;2022-11-12T05:50:21;9.80;99.90
44731;DHT22;30458;47.448;19.032;2022-11-12T06:00:40;9.80;99.90
44731;DHT22;30458;47.448;19.032;2022-11-12T06:11:02;9.90;99.90
44731;DHT22;30458;47.448;19.032;2022-11-12T06:21:21;10.00;99.90
44731;DHT22;30458;47.448;19.032;2022-11-12T06:31:43;10.20;99.90
44731;DHT22;30458;47.448;19.032;2022-11-12T06:42:02;10.30;99.90
44731;DHT22;30458;47.448;19.032;2022-11-12T06:52:22;10.40;99.90
44731;DHT22;30458;47.448;19.032;2022-11-12T07:02:43;10.60;99.90
44731;DHT22;30458;47.448;19.032;2022-11-12T07:13:03;10.70;99.90
44731;DHT22;30458;47.448;19.032;2022-11-12T07:23:22;11.00;99.90
44731;DHT22;30458;47.448;19.032;2022-11-12T07:33:45;11.20;99.90
44731;DHT22;30458;47.448;19.032;2022-11-12T07:44:07;11.20;99.90
44731;DHT22;30458;47.448;19.032;2022-11-12T07:54:26;11.20;99.90
44731;DHT22;30458;47.448;19.032;2022-11-12T08:04:45;13.20;99.90
44731;DHT22;30458;47.448;19.032;2022-11-12T08:15:04;13.90;99.90
44731;DHT22;30458;47.448;19.032;2022-11-12T08:25:24;14.60;99.90
44731;DHT22;30458;47.448;19.032;2022-11-12T08:35:43;14.10;99.90
44731;DHT22;30458;47.448;19.032;2022-11-12T08:46:05;14.00;99.90
44731;DHT22;30458;47.448;19.032;2022-11-12T08:56:24;13.70;99.90
44731;DHT22;30458;47.448;19.032;2022-11-12T09:06:48;13.10;99.90
44731;DHT22;30458;47.448;19.032;2022-11-12T09:17:07;12.80;99.90
44731;DHT22;30458;47.448;19.032;2022-11-12T09:27:26;12.70;99.90
44731;DHT22;30458;47.448;19.032;2022-11-12T09:37:46;12.80;99.90
44731;DHT22;30458;47.448;19.032;2022-11-12T09:48:11;12.90;99.90
44731;DHT22;30458;47.448;19.032;2022-11-12T09:58:31;13.10;99.90
44731;DHT22;30458;47.448;19.032;2022-11-12T10:09:13;13.40;99.90
44731;DHT22;30458;47.448;19.032;2022-11-12T10:19:49;13.50;99.90
44731;DHT22;30458;47.448;19.032;2022-11-12T10:40:34;13.50;99.90
44731;DHT22;30458;47.448;19.032;2022-11-12T10:50:54;13.60;99.90
44731;DHT22;30458;47.448;19.032;2022-11-12T11:01:15;13.50;99.90
44731;DHT22;30458;47.448;19.032;2022-11-12T11:11:50;13.60;99.90
44731;DHT22;30458;47.448;19.032;2022-11-12T12:04:41;14.20;99.90
44731;DHT22;30458;47.448;19.032;2022-11-12T12:15:16;14.40;99.90
44731;DHT22;30458;47.448;19.032;2022-11-12T12:25:39;14.50;99.90
44731;DHT22;30458;47.448;19.032;2022-11-12T12:36:14;14.60;99.90
44731;DHT22;30458;47.448;19.032;2022-11-12T12:46:39;14.60;99.90
44731;DHT22;30458;47.448;19.032;2022-11-12T12:57:02;14.80;99.90
44731;DHT22;30458;47.448;19.032;2022-11-12T13:07:47;14.80;99.90
44731;DHT22;30458;47.448;19.032;2022-11-12T13:18:08;14.80;99.90
44731;DHT22;30458;47.448;19.032;2022-11-12T13:28:30;14.80;99.90
44731;DHT22;30458;47.448;19.032;2022-11-12T13:38:49;14.80;99.90
44731;DHT22;30458;47.448;19.032;2022-11-12T13:49:10;14.70;99.90
44731;DHT22;30458;47.448;19.032;2022-11-12T13:59:33;14.60;99.90
44731;DHT22;30458;47.448;19.032;2022-11-12T14:20:36;14.20;99.90
44731;DHT22;30458;47.448;19.032;2022-11-12T14:31:02;14.00;99.90
44731;DHT22;30458;47.448;19.032;2022-11-12T14:41:24;13.90;99.90
44731;DHT22;30458;47.448;19.032;2022-11-12T14:51:53;13.90;99.90
44731;DHT22;30458;47.448;19.032;2022-11-12T15:02:20;13.70;99.90
44731;DHT22;30458;47.448;19.032;2022-11-12T15:12:39;13.70;99.90
44731;DHT22;30458;47.448;19.032;2022-11-12T15:22:58;13.50;99.90
44731;DHT22;30458;47.448;19.032;2022-11-12T15:33:21;13.60;99.90
44731;DHT22;30458;47.448;19.032;2022-11-12T15:43:42;13.60;99.90
44731;DHT22;30458;47.448;19.032;2022-11-12T15:54:04;13.70;99.90
44731;DHT22;30458;47.448;19.032;2022-11-12T16:04:26;13.70;99.90
44731;DHT22;30458;47.448;19.032;2022-11-12T16:14:45;13.80;99.90
44731;DHT22;30458;47.448;19.032;2022-11-12T16:25:04;13.80;99.90
44731;DHT22;30458;47.448;19.032;2022-11-12T16:35:25;13.70;99.90
44731;DHT22;30458;47.448;19.032;2022-11-12T16:45:44;13.70;99.90
44731;DHT22;30458;47.448;19.032;2022-11-12T16:56:07;13.70;99.90
44731;DHT22;30458;47.448;19.032;2022-11-12T17:06:46;13.70;99.90
44731;DHT22;30458;47.448;19.032;2022-11-12T17:17:05;13.70;99.90
44731;DHT22;30458;47.448;19.032;2022-11-12T17:27:24;13.70;99.90
44731;DHT22;30458;47.448;19.032;2022-11-12T17:37:43;13.70;99.90
44731;DHT22;30458;47.448;19.032;2022-11-12T17:48:03;13.60;99.90
44731;DHT22;30458;47.448;19.032;2022-11-12T17:58:24;13.50;99.90
44731;DHT22;30458;47.448;19.032;2022-11-12T18:08:44;13.30;99.90
44731;DHT22;30458;47.448;19.032;2022-11-12T18:19:04;13.20;99.90
44731;DHT22;30458;47.448;19.032;2022-11-12T18:29:25;13.20;99.90
44731;DHT22;30458;47.448;19.032;2022-11-12T18:39:45;13.20;99.90
44731;DHT22;30458;47.448;19.032;2022-11-12T18:50:05;13.00;99.90
44731;DHT22;30458;47.448;19.032;2022-11-12T19:00:24;13.00;99.90
44731;DHT22;30458;47.448;19.032;2022-11-12T19:10:43;13.00;99.90
44731;DHT22;30458;47.448;19.032;2022-11-12T19:21:19;12.90;99.90
44731;DHT22;30458;47.448;19.032;2022-11-12T19:31:40;12.90;99.90
44731;DHT22;30458;47.448;19.032;2022-11-12T19:42:00;12.90;99.90
44731;DHT22;30458;47.448;19.032;2022-11-12T19:52:19;12.80;99.90
44731;DHT22;30458;47.448;19.032;2022-11-12T20:02:38;12.80;99.90
44731;DHT22;30458;47.448;19.032;2022-11-12T20:13:00;12.80;99.90
44731;DHT22;30458;47.448;19.032;2022-11-12T20:23:22;12.70;99.90
44731;DHT22;30458;47.448;19.032;2022-11-12T20:33:42;12.70;99.90
44731;DHT22;30458;47.448;19.032;2022-11-12T20:44:03;12.70;99.90
44731;DHT22;30458;47.448;19.032;2022-11-12T20:54:25;12.60;99.90
44731;DHT22;30458;47.448;19.032;2022-11-12T21:04:45;12.60;99.90
44731;DHT22;30458;47.448;19.032;2022-11-12T21:15:07;12.50;99.90
44731;DHT22;30458;47.448;19.032;2022-11-12T21:25:26;12.40;99.90
44731;DHT22;30458;47.448;19.032;2022-11-12T21:35:51;12.20;99.90
44731;DHT22;30458;47.448;19.032;2022-11-12T21:46:25;12.10;99.90
44731;DHT22;30458;47.448;19.032;2022-11-12T21:56:45;11.90;99.90
44731;DHT22;30458;47.448;19.032;2022-11-12T22:07:05;11.60;99.90
44731;DHT22;30458;47.448;19.032;2022-11-12T22:17:27;11.50;99.90
44731;DHT22;30458;47.448;19.032;2022-11-12T22:27:46;11.50;99.90
44731;DHT22;30458;47.448;19.032;2022-11-12T22:38:05;11.40;99.90
44731;DHT22;30458;47.448;19.032;2022-11-12T22:48:24;11.20;99.90
44731;DHT22;30458;47.448;19.032;2022-11-12T22:58:48;11.10;99.90
44731;DHT22;30458;47.448;19.032;2022-11-12T23:09:13;11.00;99.90
44731;DHT22;30458;47.448;19.032;2022-11-12T23:19:32;10.90;99.90
44731;DHT22;30458;47.448;19.032;2022-11-12T23:29:54;10.70;99.90
44731;DHT22;30458;47.448;19.032;2022-11-12T23:40:13;10.60;99.90
44731;DHT22;30458;47.448;19.032;2022-11-12T23:50:35;10.50;99.90
